Time;durP1;ratioP1;P1;durP2;ratioP2;P2;SDS_P1;SDS_P2;PMS_P1;PMS_P2;Temp;Humidity;BMP_temperature;BMP_pressure;BME280_temperature;BME280_humidity;BME280_pressure;Samples;Min_cycle;Max_cycle;Signal;HPM_P1;HPM_P2
2023/12/28 00:00:36;;;;;;;8.30;1.90;;;;;;;;;;4997211;28;96192;-83
2023/12/28 00:03:03;;;;;;;6.50;1.90;;;;;;;;;;5003644;28;92164;-81
2023/12/28 00:05:29;;;;;;;4.10;1.67;;;;;;;;;;4999861;28;92890;-83
2023/12/28 00:07:59;;;;;;;5.03;1.67;;;;;;;;;;5002863;28;93285;-82
2023/12/28 00:10:27;;;;;;;4.03;1.60;;;;;;;;;;4985189;28;96370;-81
2023/12/28 00:12:54;;;;;;;5.15;1.52;;;;;;;;;;5010378;28;94331;-81
2023/12/28 00:15:21;;;;;;;4.22;1.70;;;;;;;;;;5010301;27;92660;-81
2023/12/28 00:17:48;;;;;;;4.93;1.60;;;;;;;;;;5004073;28;92386;-81
2023/12/28 00:20:14;;;;;;;4.20;1.75;;;;;;;;;;5005487;27;95793;-80
2023/12/28 00:22:41;;;;;;;4.55;1.60;;;;;;;;;;4999829;28;92456;-81
2023/12/28 00:25:08;;;;;;;6.88;2.03;;;;;;;;;;4982915;28;94466;-81
2023/12/28 00:27:37;;;;;;;5.22;1.80;;;;;;;;;;4998902;28;93434;-81
2023/12/28 00:30:06;;;;;;;6.40;2.00;;;;;;;;;;4985220;28;92519;-85
2023/12/28 00:32:33;;;;;;;5.20;1.80;;;;;;;;;;5018862;28;99432;-81
2023/12/28 00:35:00;;;;;;;7.95;2.33;;;;;;;;;;5012229;28;92617;-82
2023/12/28 00:37:27;;;;;;;5.22;1.83;;;;;;;;;;5001175;28;92792;-80
2023/12/28 00:39:53;;;;;;;4.35;1.67;;;;;;;;;;5002504;28;95436;-81
2023/12/28 00:42:20;;;;;;;6.00;2.20;;;;;;;;;;5019169;28;92463;-80
2023/12/28 00:44:47;;;;;;;5.40;1.77;;;;;;;;;;5017436;28;94791;-81
2023/12/28 00:47:13;;;;;;;4.50;1.73;;;;;;;;;;5002224;28;95957;-80
2023/12/28 00:49:40;;;;;;;4.65;1.75;;;;;;;;;;5018337;28;93128;-80
2023/12/28 00:52:08;;;;;;;5.30;1.83;;;;;;;;;;5021069;28;94980;-81
2023/12/28 00:54:36;;;;;;;7.28;1.90;;;;;;;;;;5001610;28;92116;-81
2023/12/28 00:57:03;;;;;;;6.30;1.83;;;;;;;;;;4990903;28;95324;-81
2023/12/28 00:59:30;;;;;;;8.98;2.00;;;;;;;;;;4978756;28;92761;-82
2023/12/28 01:01:57;;;;;;;4.32;1.77;;;;;;;;;;5011672;28;91983;-81
2023/12/28 01:04:24;;;;;;;4.78;1.70;;;;;;;;;;4994283;28;94631;-81
2023/12/28 01:06:52;;;;;;;3.95;1.80;;;;;;;;;;4976215;28;94922;-81
2023/12/28 01:09:18;;;;;;;;;;;;;;;;;;4980076;28;94780;-81
2023/12/28 01:11:45;;;;;;;4.18;1.70;;;;;;;;;;4999772;28;110531;-81
2023/12/28 01:14:11;;;;;;;4.70;1.50;;;;;;;;;;5004639;28;92769;-82
2023/12/28 01:16:39;;;;;;;5.32;1.83;;;;;;;;;;4995837;28;93106;-81
2023/12/28 01:19:06;;;;;;;4.80;1.67;;;;;;;;;;5021265;27;92799;-81
2023/12/28 01:21:32;;;;;;;4.53;1.60;;;;;;;;;;5002880;28;92593;-81
2023/12/28 01:23:59;;;;;;;4.45;1.80;;;;;;;;;;5001408;28;94653;-81
2023/12/28 01:26:26;;;;;;;4.35;1.65;;;;;;;;;;5019256;28;91710;-83
2023/12/28 01:28:52;;;;;;;4.93;1.70;;;;;;;;;;5001699;28;92843;-82
2023/12/28 01:31:19;;;;;;;4.68;1.60;;;;;;;;;;5008633;28;92285;-80
2023/12/28 01:33:46;;;;;;;6.95;1.90;;;;;;;;;;5001141;28;95150;-82
2023/12/28 01:36:19;;;;;;;5.28;1.77;;;;;;;;;;4994375;28;92345;-83
2023/12/28 01:38:46;;;;;;;3.65;1.50;;;;;;;;;;4997306;28;92673;-81
2023/12/28 01:41:15;;;;;;;3.70;1.50;;;;;;;;;;5001842;28;93757;-82
2023/12/28 01:43:42;;;;;;;5.22;1.60;;;;;;;;;;5003211;28;92378;-82
2023/12/28 01:46:10;;;;;;;4.53;1.90;;;;;;;;;;5000260;27;94963;-81
2023/12/28 01:48:37;;;;;;;4.00;1.60;;;;;;;;;;4986789;28;92204;-81
2023/12/28 01:51:04;;;;;;;5.13;1.50;;;;;;;;;;5010132;28;92266;-81
2023/12/28 01:53:30;;;;;;;7.00;1.92;;;;;;;;;;5010839;28;92442;-80
2023/12/28 01:55:57;;;;;;;5.05;1.70;;;;;;;;;;5020340;28;92657;-81
2023/12/28 01:58:24;;;;;;;3.72;1.52;;;;;;;;;;5003431;28;95079;-80
2023/12/28 02:00:51;;;;;;;5.97;1.83;;;;;;;;;;4997937;28;93130;-79
2023/12/28 02:03:17;;;;;;;5.15;1.60;;;;;;;;;;5012799;28;92353;-80
2023/12/28 02:05:45;;;;;;;4.47;1.65;;;;;;;;;;5020833;28;94675;-80
2023/12/28 02:08:12;;;;;;;4.03;1.50;;;;;;;;;;5020780;28;92332;-81
2023/12/28 02:10:38;;;;;;;5.75;1.75;;;;;;;;;;4997680;28;95196;-81
2023/12/28 02:13:05;;;;;;;6.25;1.70;;;;;;;;;;4991230;28;95465;-81
2023/12/28 02:15:32;;;;;;;5.45;1.60;;;;;;;;;;5027141;28;91413;-80
2023/12/28 02:18:00;;;;;;;3.55;1.48;;;;;;;;;;5018654;28;94478;-81
2023/12/28 02:20:29;;;;;;;5.43;1.60;;;;;;;;;;5007298;27;92734;-83
2023/12/28 02:22:56;;;;;;;4.63;1.60;;;;;;;;;;4989717;28;95203;-82
2023/12/28 02:25:23;;;;;;;4.35;1.50;;;;;;;;;;5020952;28;94840;-82
2023/12/28 02:27:50;;;;;;;5.95;1.60;;;;;;;;;;5015370;27;92081;-82
2023/12/28 02:30:17;;;;;;;3.83;1.55;;;;;;;;;;5025404;27;92745;-83
2023/12/28 02:32:52;;;;;;;4.60;1.60;;;;;;;;;;5015385;28;95799;-82
2023/12/28 02:35:37;;;;;;;3.95;1.60;;;;;;;;;;5007697;27;92213;-82
2023/12/28 02:38:09;;;;;;;4.80;1.67;;;;;;;;;;5000969;28;92540;-83
2023/12/28 02:40:38;;;;;;;6.50;1.60;;;;;;;;;;5002061;28;99031;-83
2023/12/28 02:43:05;;;;;;;5.00;1.40;;;;;;;;;;5000984;28;94690;-82
2023/12/28 02:45:32;;;;;;;;;;;;;;;;;;5000772;28;95379;-84
2023/12/28 02:47:58;;;;;;;4.22;1.50;;;;;;;;;;5001839;28;94607;-81
2023/12/28 02:50:25;;;;;;;3.13;1.48;;;;;;;;;;4998912;28;96750;-81
2023/12/28 02:52:52;;;;;;;3.92;1.45;;;;;;;;;;4984060;28;95631;-81
2023/12/28 02:55:19;;;;;;;3.55;1.35;;;;;;;;;;5001638;27;92101;-81
2023/12/28 02:57:45;;;;;;;4.93;1.50;;;;;;;;;;5001985;27;92844;-81
2023/12/28 03:00:12;;;;;;;4.38;1.58;;;;;;;;;;4999510;27;95536;-81
2023/12/28 03:02:39;;;;;;;4.22;1.50;;;;;;;;;;4986739;28;92960;-82
2023/12/28 03:05:06;;;;;;;3.50;1.40;;;;;;;;;;5010029;28;92035;-81
2023/12/28 03:07:34;;;;;;;3.92;1.58;;;;;;;;;;5020380;28;92112;-82
2023/12/28 03:10:00;;;;;;;5.28;1.60;;;;;;;;;;5004057;28;94966;-82
2023/12/28 03:12:27;;;;;;;5.15;1.70;;;;;;;;;;5014524;28;96749;-81
2023/12/28 03:14:54;;;;;;;4.00;1.40;;;;;;;;;;5001237;28;92713;-81
2023/12/28 03:17:21;;;;;;;4.43;1.30;;;;;;;;;;4983150;28;95227;-81
2023/12/28 03:19:47;;;;;;;3.60;1.50;;;;;;;;;;5014102;28;94823;-81
2023/12/28 03:22:17;;;;;;;4.88;1.42;;;;;;;;;;5005054;28;92819;-81
2023/12/28 03:24:44;;;;;;;3.88;1.33;;;;;;;;;;5031861;28;94929;-81
2023/12/28 03:27:11;;;;;;;2.63;1.42;;;;;;;;;;5012517;28;92993;-82
2023/12/28 03:29:38;;;;;;;3.63;1.60;;;;;;;;;;5029731;28;95175;-82
2023/12/28 03:32:05;;;;;;;4.40;1.40;;;;;;;;;;5004782;28;94548;-82
2023/12/28 03:34:31;;;;;;;5.57;1.38;;;;;;;;;;5017033;28;92173;-81
2023/12/28 03:36:58;;;;;;;3.35;1.30;;;;;;;;;;4978901;28;94790;-81
2023/12/28 03:39:25;;;;;;;3.58;1.30;;;;;;;;;;4994361;28;92979;-81
2023/12/28 03:41:55;;;;;;;4.32;1.50;;;;;;;;;;4999167;28;92483;-80
2023/12/28 03:44:21;;;;;;;4.93;1.30;;;;;;;;;;5018994;27;94852;-80
2023/12/28 03:46:49;;;;;;;3.20;1.20;;;;;;;;;;4989084;28;92175;-80
2023/12/28 03:49:17;;;;;;;3.53;1.30;;;;;;;;;;5011513;28;93098;-79
2023/12/28 03:51:43;;;;;;;5.07;1.38;;;;;;;;;;5012960;28;93952;-79
2023/12/28 03:54:10;;;;;;;3.38;1.30;;;;;;;;;;5004267;27;91285;-79
2023/12/28 03:56:39;;;;;;;4.72;1.40;;;;;;;;;;5016706;28;92162;-80
2023/12/28 03:59:06;;;;;;;5.03;1.30;;;;;;;;;;5011691;27;95532;-80
2023/12/28 04:01:33;;;;;;;5.00;1.30;;;;;;;;;;5035011;28;94836;-80
2023/12/28 04:04:00;;;;;;;3.72;1.20;;;;;;;;;;5019513;28;94857;-81
2023/12/28 04:06:27;;;;;;;4.00;1.40;;;;;;;;;;5022046;27;95518;-82
2023/12/28 04:08:53;;;;;;;4.05;1.40;;;;;;;;;;5036469;28;92213;-82
2023/12/28 04:11:20;;;;;;;5.53;1.58;;;;;;;;;;5019381;28;92771;-82
2023/12/28 04:13:47;;;;;;;4.03;1.40;;;;;;;;;;5019786;28;92389;-82
2023/12/28 04:16:14;;;;;;;4.30;1.45;;;;;;;;;;5019866;27;93059;-83
2023/12/28 04:18:41;;;;;;;4.05;1.40;;;;;;;;;;5019950;28;92316;-82
2023/12/28 04:21:08;;;;;;;3.15;1.25;;;;;;;;;;5020513;27;92041;-82
2023/12/28 04:23:35;;;;;;;4.90;1.40;;;;;;;;;;5019787;28;92821;-81
2023/12/28 04:26:02;;;;;;;11.57;1.42;;;;;;;;;;5000713;28;97263;-82
2023/12/28 04:28:29;;;;;;;3.33;1.20;;;;;;;;;;5018713;27;92446;-83
2023/12/28 04:30:56;;;;;;;4.10;1.38;;;;;;;;;;4999201;28;98056;-83
2023/12/28 04:33:23;;;;;;;4.18;1.45;;;;;;;;;;4999457;28;92569;-83
2023/12/28 04:35:49;;;;;;;10.40;1.52;;;;;;;;;;4998428;28;92415;-83
2023/12/28 04:38:16;;;;;;;6.18;1.42;;;;;;;;;;4997959;28;98525;-81
2023/12/28 04:40:42;;;;;;;3.50;1.20;;;;;;;;;;4998632;28;92344;-80
2023/12/28 04:43:09;;;;;;;5.13;1.40;;;;;;;;;;5016036;28;94685;-81
2023/12/28 04:45:35;;;;;;;5.15;1.50;;;;;;;;;;4999732;28;92816;-80
2023/12/28 04:48:02;;;;;;;5.05;1.50;;;;;;;;;;5015727;28;92465;-81
2023/12/28 04:50:29;;;;;;;5.55;1.63;;;;;;;;;;5000713;28;94857;-80
2023/12/28 04:52:56;;;;;;;6.32;1.48;;;;;;;;;;5015746;28;92582;-82
2023/12/28 04:55:24;;;;;;;3.20;1.20;;;;;;;;;;4998521;28;94791;-82
2023/12/28 04:57:50;;;;;;;4.63;1.40;;;;;;;;;;4999925;28;93019;-81
2023/12/28 05:00:17;;;;;;;6.28;1.50;;;;;;;;;;4998005;27;92506;-81
2023/12/28 05:02:46;;;;;;;7.93;1.80;;;;;;;;;;4982631;28;94928;-84
2023/12/28 05:05:12;;;;;;;7.05;1.60;;;;;;;;;;4995955;28;94762;-81
2023/12/28 05:07:40;;;;;;;;;;;;;;;;;;4976652;28;92014;-81
2023/12/28 05:10:07;;;;;;;5.60;1.30;;;;;;;;;;4999950;28;93684;-81
2023/12/28 05:12:34;;;;;;;4.93;1.40;;;;;;;;;;5021903;28;92791;-81
2023/12/28 05:15:10;;;;;;;4.50;1.30;;;;;;;;;;5018348;28;94914;-80
2023/12/28 05:17:37;;;;;;;3.55;1.27;;;;;;;;;;5018211;28;92799;-81
2023/12/28 05:20:04;;;;;;;4.55;1.40;;;;;;;;;;5035085;28;92097;-81
2023/12/28 05:22:31;;;;;;;4.35;1.27;;;;;;;;;;5019237;28;93631;-81
2023/12/28 05:24:57;;;;;;;5.82;1.38;;;;;;;;;;5022110;27;95963;-81
2023/12/28 05:27:24;;;;;;;7.22;1.70;;;;;;;;;;5008953;28;92054;-81
2023/12/28 05:29:51;;;;;;;5.43;1.55;;;;;;;;;;4998024;28;95208;-81
2023/12/28 05:32:17;;;;;;;5.28;1.42;;;;;;;;;;5000018;28;92391;-80
2023/12/28 05:34:44;;;;;;;5.68;1.30;;;;;;;;;;5017298;28;92357;-80
2023/12/28 05:37:11;;;;;;;5.10;1.35;;;;;;;;;;4997718;28;92701;-81
2023/12/28 05:39:37;;;;;;;6.05;1.40;;;;;;;;;;4998017;28;94546;-82
2023/12/28 05:42:04;;;;;;;4.90;1.42;;;;;;;;;;5014259;28;97445;-82
2023/12/28 05:44:31;;;;;;;3.95;1.05;;;;;;;;;;5018443;27;93778;-82
2023/12/28 05:47:00;;;;;;;6.95;1.63;;;;;;;;;;4998197;28;92065;-81
2023/12/28 05:49:28;;;;;;;5.35;1.50;;;;;;;;;;4998667;28;93240;-82
2023/12/28 05:51:55;;;;;;;5.43;1.30;;;;;;;;;;4997688;28;95280;-82
2023/12/28 05:54:22;;;;;;;4.90;1.50;;;;;;;;;;5003285;28;92133;-82
2023/12/28 05:56:48;;;;;;;7.22;1.30;;;;;;;;;;5009124;28;92073;-83
2023/12/28 05:59:15;;;;;;;7.20;1.40;;;;;;;;;;4978066;28;92343;-82
2023/12/28 06:01:44;;;;;;;5.32;1.40;;;;;;;;;;4992898;28;93096;-81
2023/12/28 06:04:11;;;;;;;4.97;1.30;;;;;;;;;;4979277;28;101213;-82
2023/12/28 06:06:38;;;;;;;7.13;1.50;;;;;;;;;;5037222;28;92373;-81
2023/12/28 06:09:05;;;;;;;6.65;1.67;;;;;;;;;;5021471;28;92502;-81
2023/12/28 06:11:31;;;;;;;4.85;1.20;;;;;;;;;;5004946;28;95542;-82
2023/12/28 06:13:58;;;;;;;5.30;1.30;;;;;;;;;;5000633;28;92455;-82
2023/12/28 06:16:25;;;;;;;3.67;1.15;;;;;;;;;;5002255;27;95269;-82
2023/12/28 06:18:52;;;;;;;7.70;1.55;;;;;;;;;;4999398;28;92532;-83
2023/12/28 06:21:19;;;;;;;7.07;1.40;;;;;;;;;;5008244;28;94837;-82
2023/12/28 06:23:45;;;;;;;5.60;1.45;;;;;;;;;;4988288;28;95548;-82
2023/12/28 06:26:12;;;;;;;6.47;1.42;;;;;;;;;;5020535;27;92634;-81
2023/12/28 06:28:38;;;;;;;7.03;1.60;;;;;;;;;;5019762;28;94776;-81
2023/12/28 06:31:05;;;;;;;6.55;1.42;;;;;;;;;;5003829;28;95763;-81
2023/12/28 06:33:31;;;;;;;5.68;1.40;;;;;;;;;;5022577;27;92100;-81
2023/12/28 06:36:04;;;;;;;6.78;1.33;;;;;;;;;;5020446;28;94610;-81
2023/12/28 06:38:31;;;;;;;7.10;1.50;;;;;;;;;;5000991;27;92666;-81
2023/12/28 06:40:58;;;;;;;6.70;1.60;;;;;;;;;;5006807;28;92824;-81
2023/12/28 06:43:24;;;;;;;4.88;1.45;;;;;;;;;;5022379;27;93482;-81
2023/12/28 06:45:52;;;;;;;4.55;1.40;;;;;;;;;;5022532;28;97893;-81
2023/12/28 06:48:19;;;;;;;5.53;1.40;;;;;;;;;;5018285;27;94177;-81
2023/12/28 06:50:46;;;;;;;5.82;1.33;;;;;;;;;;5001037;28;93508;-80
2023/12/28 06:53:12;;;;;;;6.50;1.38;;;;;;;;;;5000678;28;94772;-81
2023/12/28 06:55:39;;;;;;;3.80;1.30;;;;;;;;;;4999809;28;97369;-81
2023/12/28 06:58:07;;;;;;;6.60;1.35;;;;;;;;;;5000235;28;95606;-81
2023/12/28 07:00:34;;;;;;;6.15;1.40;;;;;;;;;;5002243;28;94283;-82
2023/12/28 07:03:01;;;;;;;6.78;1.40;;;;;;;;;;4989784;28;92947;-81
2023/12/28 07:05:27;;;;;;;5.15;1.30;;;;;;;;;;5004759;28;92344;-81
2023/12/28 07:07:54;;;;;;;4.18;1.30;;;;;;;;;;5007074;28;92409;-81
2023/12/28 07:10:21;;;;;;;5.95;1.40;;;;;;;;;;4999253;28;91977;-82
2023/12/28 07:12:47;;;;;;;7.15;1.50;;;;;;;;;;5000397;28;92157;-82
2023/12/28 07:15:14;;;;;;;6.47;1.50;;;;;;;;;;5001015;28;92367;-82
2023/12/28 07:17:41;;;;;;;6.05;1.38;;;;;;;;;;4999190;28;95762;-82
2023/12/28 07:20:10;;;;;;;4.63;1.20;;;;;;;;;;5016475;28;92905;-82
2023/12/28 07:22:37;;;;;;;5.22;1.17;;;;;;;;;;5014848;28;92624;-80
2023/12/28 07:25:07;;;;;;;6.63;1.25;;;;;;;;;;4996836;28;92895;-80
2023/12/28 07:27:34;;;;;;;7.57;1.25;;;;;;;;;;5008085;28;92779;-81
2023/12/28 07:30:01;;;;;;;5.85;1.30;;;;;;;;;;5016994;28;96167;-81
2023/12/28 07:32:30;;;;;;;5.65;1.40;;;;;;;;;;5002102;28;92288;-81
2023/12/28 07:34:58;;;;;;;6.88;1.30;;;;;;;;;;5016678;28;94775;-82
2023/12/28 07:37:25;;;;;;;7.30;1.50;;;;;;;;;;4999830;28;92587;-86
2023/12/28 07:39:58;;;;;;;7.05;1.40;;;;;;;;;;4989813;28;92436;-89
2023/12/28 07:42:26;;;;;;;8.30;1.55;;;;;;;;;;4998507;27;94635;-88
2023/12/28 07:45:08;;;;;;;9.45;1.40;;;;;;;;;;5027019;28;95255;-90
2023/12/28 07:47:38;;;;;;;6.90;1.60;;;;;;;;;;5008512;28;94845;-88
2023/12/28 07:50:08;;;;;;;6.45;1.30;;;;;;;;;;5017621;28;92501;-87
2023/12/28 07:52:35;;;;;;;7.22;1.50;;;;;;;;;;5021981;28;92692;-83
2023/12/28 07:55:02;;;;;;;6.78;1.30;;;;;;;;;;5013673;28;93958;-87
2023/12/28 07:57:30;;;;;;;;;;;;;;;;;;5015189;27;93023;-88
2023/12/28 08:00:11;;;;;;;6.15;1.33;;;;;;;;;;5031337;27;91536;-89
2023/12/28 08:02:38;;;;;;;7.32;1.38;;;;;;;;;;4996069;28;95956;-85
2023/12/28 08:05:05;;;;;;;10.90;1.80;;;;;;;;;;5016553;28;94848;-87
2023/12/28 08:07:34;;;;;;;7.25;1.60;;;;;;;;;;5000436;28;95128;-86
2023/12/28 08:10:06;;;;;;;5.88;1.58;;;;;;;;;;5001617;28;92786;-86
2023/12/28 08:12:36;;;;;;;5.20;1.38;;;;;;;;;;5017415;28;92390;-84
2023/12/28 08:15:06;;;;;;;7.25;1.25;;;;;;;;;;4994486;28;92293;-86
2023/12/28 08:17:32;;;;;;;6.05;1.20;;;;;;;;;;5013323;28;93124;-84
2023/12/28 08:19:59;;;;;;;6.97;1.30;;;;;;;;;;5022026;27;92226;-84
2023/12/28 08:22:28;;;;;;;9.15;1.60;;;;;;;;;;4992948;28;94701;-83
2023/12/28 08:24:54;;;;;;;10.05;1.95;;;;;;;;;;5002242;28;91926;-85
2023/12/28 08:27:21;;;;;;;7.72;1.48;;;;;;;;;;5003425;28;93293;-85
2023/12/28 08:29:48;;;;;;;6.65;1.50;;;;;;;;;;5002862;28;93261;-85
2023/12/28 08:32:14;;;;;;;7.55;1.50;;;;;;;;;;5000131;27;94628;-86
2023/12/28 08:34:41;;;;;;;7.25;1.75;;;;;;;;;;5000603;28;97022;-85
2023/12/28 08:37:11;;;;;;;6.88;1.38;;;;;;;;;;4992378;28;93008;-81
2023/12/28 08:39:39;;;;;;;4.60;1.30;;;;;;;;;;5000894;28;92169;-82
2023/12/28 08:42:05;;;;;;;10.32;1.42;;;;;;;;;;4999945;28;95135;-83
2023/12/28 08:44:33;;;;;;;6.32;1.50;;;;;;;;;;5001373;28;98090;-84
2023/12/28 08:47:00;;;;;;;7.30;1.48;;;;;;;;;;4999463;28;92571;-83
2023/12/28 08:49:27;;;;;;;8.40;1.60;;;;;;;;;;5020912;28;93104;-84
2023/12/28 08:51:54;;;;;;;;;;;;;;;;;;4994057;28;92113;-82
2023/12/28 08:54:20;;;;;;;12.77;1.67;;;;;;;;;;5015426;28;115500;-81
2023/12/28 08:56:48;;;;;;;6.88;1.63;;;;;;;;;;5001877;28;97109;-83
2023/12/28 08:59:19;;;;;;;5.50;1.30;;;;;;;;;;5021455;27;92071;-82
2023/12/28 09:01:45;;;;;;;7.63;1.48;;;;;;;;;;5003992;28;94721;-80
2023/12/28 09:04:13;;;;;;;6.35;1.35;;;;;;;;;;5005715;27;95075;-79
2023/12/28 09:06:41;;;;;;;9.38;1.65;;;;;;;;;;4980387;28;92230;-80
2023/12/28 09:09:09;;;;;;;8.25;1.50;;;;;;;;;;4984862;28;95321;-79
2023/12/28 09:11:36;;;;;;;5.82;1.23;;;;;;;;;;5002546;28;94992;-81
2023/12/28 09:14:02;;;;;;;6.45;1.55;;;;;;;;;;5001156;28;94154;-84
2023/12/28 09:16:29;;;;;;;5.68;1.27;;;;;;;;;;4983707;28;94682;-82
2023/12/28 09:18:57;;;;;;;6.75;1.30;;;;;;;;;;5000507;28;92637;-82
2023/12/28 09:21:26;;;;;;;;;;;;;;;;;;4982486;28;95113;-83
2023/12/28 09:23:52;;;;;;;5.78;1.35;;;;;;;;;;5000482;28;114174;-82
2023/12/28 09:26:19;;;;;;;6.85;1.38;;;;;;;;;;4999036;28;92047;-82
2023/12/28 09:28:45;;;;;;;6.18;1.30;;;;;;;;;;4989302;28;94714;-81
2023/12/28 09:31:12;;;;;;;6.82;1.40;;;;;;;;;;5003039;28;92360;-81
2023/12/28 09:33:39;;;;;;;8.02;1.40;;;;;;;;;;5025067;27;92197;-81
2023/12/28 09:36:06;;;;;;;8.70;1.50;;;;;;;;;;5018264;28;94887;-80
2023/12/28 09:38:33;;;;;;;6.13;1.40;;;;;;;;;;5021189;28;91451;-82
2023/12/28 09:41:05;;;;;;;5.07;1.40;;;;;;;;;;5013685;28;92430;-81
2023/12/28 09:43:36;;;;;;;5.65;1.42;;;;;;;;;;4986522;28;92631;-83
2023/12/28 09:46:07;;;;;;;8.85;1.52;;;;;;;;;;4983763;28;94396;-82
2023/12/28 09:48:34;;;;;;;5.40;1.35;;;;;;;;;;5023677;28;99627;-82
2023/12/28 09:51:01;;;;;;;5.93;1.40;;;;;;;;;;5029864;27;93973;-83
2023/12/28 09:53:28;;;;;;;6.53;1.35;;;;;;;;;;5013088;28;92149;-83
2023/12/28 09:55:54;;;;;;;6.72;1.58;;;;;;;;;;5004021;28;94708;-82
2023/12/28 09:58:21;;;;;;;6.25;1.58;;;;;;;;;;5002015;28;92146;-82
2023/12/28 10:00:49;;;;;;;8.02;1.70;;;;;;;;;;5004064;28;92397;-82
2023/12/28 10:03:17;;;;;;;6.13;1.65;;;;;;;;;;5002847;28;94700;-84
2023/12/28 10:05:45;;;;;;;6.93;1.50;;;;;;;;;;5002085;28;92305;-82
2023/12/28 10:08:13;;;;;;;5.57;1.45;;;;;;;;;;5001701;28;95205;-83
2023/12/28 10:10:40;;;;;;;7.40;1.58;;;;;;;;;;4998701;28;95236;-82
2023/12/28 10:13:07;;;;;;;6.78;1.30;;;;;;;;;;5020931;28;92559;-83
2023/12/28 10:15:35;;;;;;;6.07;1.50;;;;;;;;;;4996357;28;95503;-82
2023/12/28 10:18:02;;;;;;;5.88;1.40;;;;;;;;;;5003381;28;92273;-82
2023/12/28 10:20:29;;;;;;;5.88;1.40;;;;;;;;;;5034807;28;94827;-82
2023/12/28 10:22:56;;;;;;;5.68;1.33;;;;;;;;;;4997091;28;93051;-82
2023/12/28 10:25:23;;;;;;;6.50;1.50;;;;;;;;;;4995946;28;92216;-83
2023/12/28 10:27:51;;;;;;;6.40;1.42;;;;;;;;;;4990075;28;91728;-82
2023/12/28 10:30:19;;;;;;;6.95;1.52;;;;;;;;;;4997921;28;93284;-82
2023/12/28 10:32:47;;;;;;;7.65;1.42;;;;;;;;;;4981217;28;93532;-83
2023/12/28 10:35:14;;;;;;;5.90;1.40;;;;;;;;;;5008468;28;95304;-83
2023/12/28 10:37:43;;;;;;;6.68;1.50;;;;;;;;;;5004837;28;94702;-81
2023/12/28 10:40:13;;;;;;;7.90;1.90;;;;;;;;;;5000251;28;95008;-84
2023/12/28 10:42:46;;;;;;;7.20;1.80;;;;;;;;;;5001984;28;95512;-82
2023/12/28 10:45:14;;;;;;;6.75;1.60;;;;;;;;;;5003215;28;92309;-83
2023/12/28 10:47:44;;;;;;;8.57;1.60;;;;;;;;;;5000403;28;95424;-83
2023/12/28 10:50:12;;;;;;;7.85;1.67;;;;;;;;;;5001330;27;96890;-82
2023/12/28 10:52:42;;;;;;;7.63;1.60;;;;;;;;;;4998348;28;92200;-81
2023/12/28 10:55:08;;;;;;;7.78;1.50;;;;;;;;;;5005989;28;93744;-82
2023/12/28 10:57:47;;;;;;;6.47;1.50;;;;;;;;;;5001176;28;93079;-83
2023/12/28 11:00:17;;;;;;;8.45;1.85;;;;;;;;;;5003051;28;94549;-83
2023/12/28 11:02:51;;;;;;;6.60;1.42;;;;;;;;;;5018084;28;93071;-83
2023/12/28 11:05:21;;;;;;;8.25;1.83;;;;;;;;;;5013389;28;92406;-82
2023/12/28 11:07:49;;;;;;;8.38;1.60;;;;;;;;;;5008026;28;95986;-82
2023/12/28 11:10:17;;;;;;;6.10;1.27;;;;;;;;;;5001730;28;93122;-83
2023/12/28 11:12:44;;;;;;;6.38;1.40;;;;;;;;;;5002201;28;92157;-82
2023/12/28 11:15:11;;;;;;;8.88;1.58;;;;;;;;;;5000461;28;94296;-83
2023/12/28 11:17:39;;;;;;;6.05;1.35;;;;;;;;;;5012620;28;91958;-82
2023/12/28 11:20:06;;;;;;;8.75;1.75;;;;;;;;;;5005284;28;92370;-82
2023/12/28 11:22:33;;;;;;;;;;;;;;;;;;5026210;28;96838;-82
2023/12/28 11:25:00;;;;;;;6.43;1.30;;;;;;;;;;5021267;28;94484;-83
2023/12/28 11:27:33;;;;;;;9.98;1.70;;;;;;;;;;4994374;28;97059;-88
2023/12/28 11:30:05;;;;;;;6.75;1.40;;;;;;;;;;5001405;28;93915;-86
2023/12/28 11:32:44;;;;;;;6.75;1.67;;;;;;;;;;5017025;28;92722;-85
2023/12/28 11:35:12;;;;;;;6.53;1.40;;;;;;;;;;5001083;28;94152;-84
2023/12/28 11:37:40;;;;;;;6.15;1.50;;;;;;;;;;5003112;28;93249;-86
2023/12/28 11:40:10;;;;;;;8.23;1.77;;;;;;;;;;5001973;28;92422;-85
2023/12/28 11:42:47;;;;;;;8.65;1.80;;;;;;;;;;5002032;28;92791;-85
2023/12/28 11:45:16;;;;;;;7.85;1.67;;;;;;;;;;5006285;28;92316;-85
2023/12/28 11:47:43;;;;;;;8.25;1.58;;;;;;;;;;5000322;28;94762;-85
2023/12/28 11:50:10;;;;;;;8.52;1.67;;;;;;;;;;5004678;28;95526;-84
2023/12/28 11:52:36;;;;;;;;;;;;;;;;;;5009004;28;92192;-85
2023/12/28 11:55:04;;;;;;;7.70;1.65;;;;;;;;;;5005465;28;92283;-86
2023/12/28 11:57:31;;;;;;;8.55;1.63;;;;;;;;;;5003156;28;92937;-85
2023/12/28 11:59:59;;;;;;;8.48;1.67;;;;;;;;;;5002544;28;92349;-85
2023/12/28 12:02:26;;;;;;;9.25;1.88;;;;;;;;;;5021037;27;92611;-85
2023/12/28 12:04:53;;;;;;;10.27;1.70;;;;;;;;;;5022014;28;95538;-82
2023/12/28 12:07:21;;;;;;;9.32;2.00;;;;;;;;;;5014462;28;92144;-83
2023/12/28 12:09:48;;;;;;;7.53;1.75;;;;;;;;;;5001447;28;92709;-83
2023/12/28 12:12:15;;;;;;;8.60;1.75;;;;;;;;;;5017975;27;92387;-84
2023/12/28 12:14:42;;;;;;;8.57;1.90;;;;;;;;;;5003809;28;94350;-85
2023/12/28 12:17:09;;;;;;;8.25;1.50;;;;;;;;;;5002224;28;92564;-81
2023/12/28 12:19:36;;;;;;;8.70;1.73;;;;;;;;;;5001283;28;92499;-81
2023/12/28 12:22:03;;;;;;;9.00;1.70;;;;;;;;;;5018749;28;92494;-83
2023/12/28 12:24:31;;;;;;;7.80;1.58;;;;;;;;;;5019830;28;94968;-83
2023/12/28 12:26:58;;;;;;;7.90;1.60;;;;;;;;;;5024201;28;92167;-82
2023/12/28 12:29:25;;;;;;;8.32;1.65;;;;;;;;;;5001197;28;95469;-81
2023/12/28 12:31:55;;;;;;;6.50;1.67;;;;;;;;;;5001143;28;94362;-81
2023/12/28 12:34:22;;;;;;;7.47;1.58;;;;;;;;;;5001885;28;92326;-82
2023/12/28 12:36:52;;;;;;;7.40;1.52;;;;;;;;;;5001568;28;93627;-82
2023/12/28 12:39:19;;;;;;;10.15;2.10;;;;;;;;;;4997246;28;94536;-83
2023/12/28 12:41:47;;;;;;;7.15;1.50;;;;;;;;;;4996231;28;97154;-83
2023/12/28 12:44:16;;;;;;;7.90;1.60;;;;;;;;;;5000491;28;93826;-81
2023/12/28 12:46:43;;;;;;;6.47;1.58;;;;;;;;;;5016117;28;92547;-80
2023/12/28 12:49:10;;;;;;;7.28;1.50;;;;;;;;;;5003410;28;93863;-80
2023/12/28 12:51:38;;;;;;;7.57;1.70;;;;;;;;;;4983635;28;92147;-84
2023/12/28 12:54:04;;;;;;;8.55;1.55;;;;;;;;;;4998840;28;92916;-82
2023/12/28 12:56:31;;;;;;;8.20;1.40;;;;;;;;;;5000081;28;91621;-81
2023/12/28 12:58:58;;;;;;;7.95;1.70;;;;;;;;;;5001583;28;92290;-81
2023/12/28 13:01:25;;;;;;;7.15;1.60;;;;;;;;;;5011870;28;92646;-82
2023/12/28 13:03:52;;;;;;;7.78;1.73;;;;;;;;;;5018214;28;97813;-84
2023/12/28 13:06:22;;;;;;;8.73;1.98;;;;;;;;;;5002509;28;92587;-83
2023/12/28 13:08:49;;;;;;;6.28;1.70;;;;;;;;;;5016525;28;94331;-82
2023/12/28 13:11:16;;;;;;;8.10;1.60;;;;;;;;;;4989509;28;93082;-83
2023/12/28 13:13:43;;;;;;;7.55;1.73;;;;;;;;;;4981767;28;94549;-86
2023/12/28 13:16:09;;;;;;;10.25;1.90;;;;;;;;;;5001203;28;94997;-84
2023/12/28 13:18:36;;;;;;;9.25;1.80;;;;;;;;;;5008299;28;92079;-81
2023/12/28 13:21:03;;;;;;;9.70;1.70;;;;;;;;;;5016295;28;92375;-81
2023/12/28 13:23:30;;;;;;;8.55;1.80;;;;;;;;;;5003943;28;93180;-82
2023/12/28 13:25:57;;;;;;;5.68;1.38;;;;;;;;;;5005425;28;92424;-82
2023/12/28 13:28:24;;;;;;;8.35;1.55;;;;;;;;;;5001353;28;95015;-82
2023/12/28 13:30:50;;;;;;;8.38;1.60;;;;;;;;;;5003111;28;93355;-82
2023/12/28 13:33:17;;;;;;;6.68;1.60;;;;;;;;;;5023085;28;92261;-82
2023/12/28 13:35:44;;;;;;;7.47;1.50;;;;;;;;;;5003389;28;92616;-83
2023/12/28 13:38:11;;;;;;;7.75;1.80;;;;;;;;;;5018811;28;92758;-83
2023/12/28 13:40:37;;;;;;;8.35;1.67;;;;;;;;;;4989812;28;92825;-82
2023/12/28 13:43:04;;;;;;;9.02;1.67;;;;;;;;;;4993853;28;92951;-82
2023/12/28 13:45:31;;;;;;;9.95;1.98;;;;;;;;;;5011535;28;91498;-82
2023/12/28 13:47:57;;;;;;;7.57;1.50;;;;;;;;;;5003112;28;94317;-81
2023/12/28 13:50:24;;;;;;;7.03;1.52;;;;;;;;;;5020367;28;95301;-81
2023/12/28 13:52:51;;;;;;;9.15;1.80;;;;;;;;;;5021355;28;95003;-81
2023/12/28 13:55:18;;;;;;;7.32;1.63;;;;;;;;;;5015495;28;97567;-83
2023/12/28 13:57:45;;;;;;;9.88;2.25;;;;;;;;;;5017502;28;92297;-83
2023/12/28 14:00:12;;;;;;;9.55;1.75;;;;;;;;;;5002355;28;95837;-82
2023/12/28 14:02:40;;;;;;;10.02;2.10;;;;;;;;;;5023668;28;95328;-82
2023/12/28 14:05:07;;;;;;;11.88;2.13;;;;;;;;;;5032471;27;93554;-81
2023/12/28 14:07:34;;;;;;;10.73;1.83;;;;;;;;;;5044161;27;92871;-81
2023/12/28 14:10:00;;;;;;;6.90;1.80;;;;;;;;;;5025686;28;94532;-81
2023/12/28 14:12:27;;;;;;;8.38;1.73;;;;;;;;;;5042466;27;92254;-84
2023/12/28 14:14:54;;;;;;;6.82;1.55;;;;;;;;;;5038380;28;95120;-80
2023/12/28 14:17:21;;;;;;;10.02;2.03;;;;;;;;;;5020183;27;94423;-83
2023/12/28 14:19:47;;;;;;;8.48;1.70;;;;;;;;;;5022484;27;94792;-81
2023/12/28 14:22:14;;;;;;;8.45;1.83;;;;;;;;;;5006020;27;92905;-83
2023/12/28 14:24:41;;;;;;;8.60;1.90;;;;;;;;;;5037514;27;92305;-81
2023/12/28 14:27:08;;;;;;;8.48;1.70;;;;;;;;;;5004575;28;94379;-86
2023/12/28 14:29:35;;;;;;;8.07;1.70;;;;;;;;;;5023149;27;92780;-88
2023/12/28 14:32:02;;;;;;;6.68;1.63;;;;;;;;;;5005731;28;92463;-80
2023/12/28 14:34:31;;;;;;;8.75;1.77;;;;;;;;;;5000872;27;92387;-80
2023/12/28 14:36:57;;;;;;;9.43;1.83;;;;;;;;;;4995868;28;93791;-83
2023/12/28 14:39:24;;;;;;;9.80;1.60;;;;;;;;;;5016350;28;92543;-81
2023/12/28 14:41:51;;;;;;;6.88;1.40;;;;;;;;;;5005621;28;96009;-81
2023/12/28 14:44:17;;;;;;;8.32;1.50;;;;;;;;;;5002897;28;92337;-81
2023/12/28 14:46:44;;;;;;;8.15;1.90;;;;;;;;;;4986114;28;92463;-81